Time;durP1;ratioP1;P1;durP2;ratioP2;P2;SDS_P1;SDS_P2;PMS_P1;PMS_P2;Temp;Humidity;BMP_temperature;BMP_pressure;BME280_temperature;BME280_humidity;BME280_pressure;Samples;Min_cycle;Max_cycle;Signal;HPM_P1;HPM_P2
2021/07/30 00:02:08;;;;;;;4.90;4.50;;;;;;;;;;4987333;28;24500;-52
2021/07/30 00:04:33;;;;;;;5.50;4.90;;;;;;;;;;4986857;28;24520;-51
2021/07/30 00:06:58;;;;;;;4.75;4.35;;;;;;;;;;4987602;28;24872;-51
2021/07/30 00:09:23;;;;;;;5.00;4.53;;;;;;;;;;4986219;28;24987;-52
2021/07/30 00:11:48;;;;;;;4.68;4.38;;;;;;;;;;4986887;28;24425;-51
2021/07/30 00:14:13;;;;;;;5.10;4.70;;;;;;;;;;4986838;28;24434;-51
2021/07/30 00:16:39;;;;;;;4.90;4.50;;;;;;;;;;4987030;28;24809;-51
2021/07/30 00:19:04;;;;;;;4.80;4.40;;;;;;;;;;4989285;28;24483;-52
2021/07/30 00:21:30;;;;;;;4.33;4.03;;;;;;;;;;4989462;28;24523;-51
2021/07/30 00:23:55;;;;;;;4.47;4.17;;;;;;;;;;4992021;28;24413;-53
2021/07/30 00:26:20;;;;;;;4.60;4.30;;;;;;;;;;4991563;28;25045;-52
2021/07/30 00:28:45;;;;;;;4.80;4.40;;;;;;;;;;4991265;28;24501;-52
2021/07/30 00:31:11;;;;;;;4.90;4.60;;;;;;;;;;4989575;28;24448;-52
2021/07/30 00:33:36;;;;;;;4.73;4.33;;;;;;;;;;4991548;28;24795;-51
2021/07/30 00:36:01;;;;;;;4.30;4.00;;;;;;;;;;4990508;28;24441;-51
2021/07/30 00:38:27;;;;;;;5.40;4.90;;;;;;;;;;4990963;28;24950;-51
2021/07/30 00:40:52;;;;;;;4.80;4.50;;;;;;;;;;4991201;28;24423;-52
2021/07/30 00:43:17;;;;;;;5.00;4.60;;;;;;;;;;4991080;28;24701;-51
2021/07/30 00:45:43;;;;;;;5.47;4.97;;;;;;;;;;4991175;28;24413;-52
2021/07/30 00:48:08;;;;;;;5.30;4.90;;;;;;;;;;4989751;28;24447;-51
2021/07/30 00:50:34;;;;;;;4.68;4.38;;;;;;;;;;4989964;28;24576;-51
2021/07/30 00:52:59;;;;;;;4.80;4.40;;;;;;;;;;4990472;28;25006;-51
2021/07/30 00:55:24;;;;;;;4.70;4.40;;;;;;;;;;4990163;28;24421;-51
2021/07/30 00:57:50;;;;;;;4.90;4.50;;;;;;;;;;4991009;28;24478;-51
2021/07/30 01:00:16;;;;;;;5.30;4.90;;;;;;;;;;4990774;28;25041;-50
2021/07/30 01:02:41;;;;;;;5.10;4.70;;;;;;;;;;4989675;28;24424;-51
2021/07/30 01:05:07;;;;;;;4.60;4.30;;;;;;;;;;4989385;28;24405;-51
2021/07/30 01:07:32;;;;;;;4.97;4.57;;;;;;;;;;4990112;28;24413;-51
2021/07/30 01:09:59;;;;;;;5.27;4.77;;;;;;;;;;4988773;28;24463;-51
2021/07/30 01:12:24;;;;;;;4.80;4.40;;;;;;;;;;4988829;28;25060;-52
2021/07/30 01:14:49;;;;;;;4.90;4.50;;;;;;;;;;4982824;28;24428;-51
2021/07/30 01:17:14;;;;;;;5.00;4.70;;;;;;;;;;4989978;28;24416;-51
2021/07/30 01:19:39;;;;;;;5.40;4.70;;;;;;;;;;4989846;28;24560;-52
2021/07/30 01:22:09;;;;;;;5.60;5.10;;;;;;;;;;4988808;28;24515;-51
2021/07/30 01:24:34;;;;;;;5.00;4.60;;;;;;;;;;4989795;28;24955;-51
2021/07/30 01:27:00;;;;;;;4.87;4.47;;;;;;;;;;4989829;28;24516;-52
2021/07/30 01:29:29;;;;;;;6.60;4.97;;;;;;;;;;4987930;28;24425;-51
2021/07/30 01:31:54;;;;;;;5.30;4.90;;;;;;;;;;4984508;28;24436;-52
2021/07/30 01:34:19;;;;;;;5.35;4.95;;;;;;;;;;4989707;28;24772;-51
2021/07/30 01:36:44;;;;;;;5.10;4.70;;;;;;;;;;4989410;28;24491;-52
2021/07/30 01:39:10;;;;;;;5.50;5.10;;;;;;;;;;4989356;28;24936;-52
2021/07/30 01:41:35;;;;;;;5.10;4.70;;;;;;;;;;4989876;28;24425;-51
2021/07/30 01:44:00;;;;;;;4.85;4.50;;;;;;;;;;4989437;28;24428;-52
2021/07/30 01:46:25;;;;;;;5.47;4.97;;;;;;;;;;4989129;28;24745;-51
2021/07/30 01:48:50;;;;;;;4.80;4.40;;;;;;;;;;4989746;28;24418;-53
2021/07/30 01:51:15;;;;;;;4.70;4.40;;;;;;;;;;4988374;28;24536;-52
2021/07/30 01:53:40;;;;;;;5.30;4.80;;;;;;;;;;4984927;28;24477;-52
2021/07/30 01:56:06;;;;;;;4.72;4.40;;;;;;;;;;4990207;28;24468;-52
2021/07/30 01:58:33;;;;;;;4.90;4.50;;;;;;;;;;4988887;28;24417;-51
2021/07/30 02:00:58;;;;;;;5.40;4.90;;;;;;;;;;4988378;28;24996;-52
2021/07/30 02:03:23;;;;;;;4.57;4.20;;;;;;;;;;4989488;28;24508;-52
2021/07/30 02:05:48;;;;;;;5.03;4.55;;;;;;;;;;4989054;28;24854;-52
2021/07/30 02:08:13;;;;;;;4.72;4.43;;;;;;;;;;4989763;28;24412;-52
2021/07/30 02:10:39;;;;;;;5.05;4.65;;;;;;;;;;4989385;28;24520;-52
2021/07/30 02:15:48;;;;;;;5.57;5.18;;;;;;;;;;4989096;28;24576;-52
2021/07/30 02:18:13;;;;;;;5.13;4.73;;;;;;;;;;4988163;28;24512;-51
2021/07/30 02:20:38;;;;;;;4.60;4.30;;;;;;;;;;4988281;28;24593;-51
2021/07/30 02:23:03;;;;;;;5.00;4.60;;;;;;;;;;4989437;28;24487;-51
2021/07/30 02:25:28;;;;;;;5.27;4.87;;;;;;;;;;4988041;28;24795;-51
2021/07/30 02:27:53;;;;;;;5.20;4.80;;;;;;;;;;4988818;28;24468;-49
2021/07/30 02:30:19;;;;;;;5.25;4.85;;;;;;;;;;4989127;28;24943;-51
2021/07/30 02:32:44;;;;;;;6.22;5.63;;;;;;;;;;4989170;28;24479;-50
2021/07/30 02:35:09;;;;;;;5.75;5.25;;;;;;;;;;4988765;28;24500;-51
2021/07/30 02:37:34;;;;;;;5.50;5.10;;;;;;;;;;4987647;28;25330;-51
2021/07/30 02:39:59;;;;;;;5.40;5.00;;;;;;;;;;4988717;28;24840;-51
2021/07/30 02:42:24;;;;;;;6.03;5.15;;;;;;;;;;4987707;28;24897;-51
2021/07/30 02:44:51;;;;;;;6.25;5.65;;;;;;;;;;4988544;28;24420;-51
2021/07/30 02:47:16;;;;;;;5.17;4.77;;;;;;;;;;4988388;28;24427;-52
2021/07/30 02:49:41;;;;;;;5.57;5.07;;;;;;;;;;4988623;28;24425;-52
2021/07/30 02:52:06;;;;;;;5.90;5.40;;;;;;;;;;4987774;28;24537;-52
2021/07/30 02:54:32;;;;;;;5.50;5.10;;;;;;;;;;4988047;28;25021;-51
2021/07/30 02:56:57;;;;;;;5.50;5.00;;;;;;;;;;4987766;28;24423;-51
2021/07/30 02:59:22;;;;;;;5.90;5.30;;;;;;;;;;4987295;28;24456;-50
2021/07/30 03:01:47;;;;;;;5.75;5.25;;;;;;;;;;4987972;28;24994;-52
2021/07/30 03:04:12;;;;;;;6.10;5.60;;;;;;;;;;4988162;28;24496;-52
2021/07/30 03:06:37;;;;;;;5.72;5.32;;;;;;;;;;4988183;28;24467;-51
2021/07/30 03:09:02;;;;;;;5.93;5.43;;;;;;;;;;4988120;28;24974;-51
2021/07/30 03:11:28;;;;;;;6.05;5.55;;;;;;;;;;4987232;28;24511;-51
2021/07/30 03:13:53;;;;;;;7.40;6.70;;;;;;;;;;4988811;28;24459;-51
2021/07/30 03:16:18;;;;;;;6.20;5.80;;;;;;;;;;4986648;28;25010;-52
2021/07/30 03:18:44;;;;;;;7.60;7.10;;;;;;;;;;4986944;28;24448;-52
2021/07/30 03:21:09;;;;;;;6.50;6.00;;;;;;;;;;4986976;28;24795;-51
2021/07/30 03:23:34;;;;;;;5.45;5.05;;;;;;;;;;4987758;28;25002;-52
2021/07/30 03:25:59;;;;;;;6.05;5.55;;;;;;;;;;4987983;28;24495;-52
2021/07/30 03:28:25;;;;;;;5.50;5.10;;;;;;;;;;4986815;28;24413;-51
2021/07/30 03:30:50;;;;;;;5.90;5.40;;;;;;;;;;4986689;28;24487;-51
2021/07/30 03:33:15;;;;;;;5.30;4.90;;;;;;;;;;4988419;28;24412;-52
2021/07/30 03:35:40;;;;;;;5.80;5.30;;;;;;;;;;4983322;28;24993;-51
2021/07/30 03:38:06;;;;;;;5.90;5.40;;;;;;;;;;4984319;28;24420;-51
2021/07/30 03:40:31;;;;;;;5.80;5.30;;;;;;;;;;4982097;28;24424;-51
2021/07/30 03:42:56;;;;;;;5.37;5.03;;;;;;;;;;4987135;28;24958;-51
2021/07/30 03:45:21;;;;;;;5.93;5.53;;;;;;;;;;4986676;28;24417;-51
2021/07/30 03:47:46;;;;;;;6.73;6.23;;;;;;;;;;4986954;28;24406;-50
2021/07/30 03:50:12;;;;;;;6.15;5.75;;;;;;;;;;4983307;28;24878;-51
2021/07/30 03:52:37;;;;;;;5.18;4.78;;;;;;;;;;4987410;28;24750;-52
2021/07/30 03:55:02;;;;;;;5.97;5.40;;;;;;;;;;4987595;28;24423;-52
2021/07/30 03:57:27;;;;;;;5.00;4.60;;;;;;;;;;4987052;28;25050;-52
2021/07/30 03:59:53;;;;;;;5.70;5.20;;;;;;;;;;4986980;28;24487;-52
2021/07/30 04:02:18;;;;;;;4.63;4.33;;;;;;;;;;4986747;28;25329;-52
2021/07/30 04:04:43;;;;;;;5.30;4.90;;;;;;;;;;4987589;28;25034;-52
2021/07/30 04:07:08;;;;;;;5.40;5.00;;;;;;;;;;4987726;28;24532;-52
2021/07/30 04:09:33;;;;;;;5.00;4.60;;;;;;;;;;4987852;28;24424;-52
2021/07/30 04:11:58;;;;;;;4.90;4.60;;;;;;;;;;4986759;28;24779;-53
2021/07/30 04:14:23;;;;;;;5.32;4.93;;;;;;;;;;4986932;28;24505;-52
2021/07/30 04:16:49;;;;;;;5.17;4.87;;;;;;;;;;4987468;28;24420;-51
2021/07/30 04:19:14;;;;;;;4.70;4.40;;;;;;;;;;4987435;28;24771;-51
2021/07/30 04:21:39;;;;;;;6.37;5.87;;;;;;;;;;4986397;28;24417;-53
2021/07/30 04:24:05;;;;;;;5.70;5.20;;;;;;;;;;4987399;28;24856;-52
2021/07/30 04:26:30;;;;;;;4.82;4.53;;;;;;;;;;4982857;28;24479;-52
2021/07/30 04:28:55;;;;;;;5.70;5.30;;;;;;;;;;4981540;28;24443;-53
2021/07/30 04:31:20;;;;;;;5.90;5.50;;;;;;;;;;4982177;28;24621;-52
2021/07/30 04:33:46;;;;;;;4.60;4.30;;;;;;;;;;4979910;28;24428;-53
2021/07/30 04:36:15;;;;;;;4.60;4.30;;;;;;;;;;4983122;28;24408;-52
2021/07/30 04:38:40;;;;;;;5.18;4.78;;;;;;;;;;4980935;28;25009;-52
2021/07/30 04:41:05;;;;;;;4.80;4.50;;;;;;;;;;4982532;28;24435;-53
2021/07/30 04:43:31;;;;;;;4.30;4.00;;;;;;;;;;4980001;28;24409;-51
2021/07/30 04:45:56;;;;;;;4.57;4.20;;;;;;;;;;4984527;28;24516;-52
2021/07/30 04:48:21;;;;;;;5.00;4.70;;;;;;;;;;4983522;28;24425;-52
2021/07/30 04:50:46;;;;;;;4.20;3.90;;;;;;;;;;4983108;28;24877;-53
2021/07/30 04:53:11;;;;;;;4.20;3.90;;;;;;;;;;4962446;28;24441;-52
2021/07/30 04:55:36;;;;;;;4.93;4.53;;;;;;;;;;4962628;28;24718;-53
2021/07/30 04:58:01;;;;;;;4.10;3.80;;;;;;;;;;4963154;28;24824;-52
2021/07/30 05:00:27;;;;;;;4.13;3.83;;;;;;;;;;4964298;28;24417;-52
2021/07/30 05:02:52;;;;;;;4.70;4.18;;;;;;;;;;4965172;28;24421;-53
2021/07/30 05:05:18;;;;;;;5.00;4.60;;;;;;;;;;4966823;28;24418;-52
2021/07/30 05:07:43;;;;;;;4.30;4.00;;;;;;;;;;4967423;28;24424;-53
2021/07/30 05:10:08;;;;;;;4.20;3.80;;;;;;;;;;4966269;28;24472;-52
2021/07/30 05:12:33;;;;;;;4.40;4.00;;;;;;;;;;4966578;28;24484;-52
2021/07/30 05:14:59;;;;;;;4.03;3.83;;;;;;;;;;4965231;28;24501;-52
2021/07/30 05:17:24;;;;;;;4.10;3.80;;;;;;;;;;4962275;28;24476;-53
2021/07/30 05:19:49;;;;;;;4.30;3.90;;;;;;;;;;4963970;28;24448;-53
2021/07/30 05:22:14;;;;;;;4.20;3.90;;;;;;;;;;4957439;28;24429;-53
2021/07/30 05:24:39;;;;;;;3.92;3.72;;;;;;;;;;4967894;28;24804;-52
2021/07/30 05:27:05;;;;;;;4.00;3.80;;;;;;;;;;4967784;28;24861;-52
2021/07/30 05:29:30;;;;;;;4.60;4.17;;;;;;;;;;4966296;28;24425;-52
2021/07/30 05:31:55;;;;;;;4.37;4.07;;;;;;;;;;4968720;28;24453;-53
2021/07/30 05:34:20;;;;;;;4.30;4.00;;;;;;;;;;4968138;28;24392;-52
2021/07/30 05:36:46;;;;;;;4.60;4.20;;;;;;;;;;4969744;28;24421;-53
2021/07/30 05:39:11;;;;;;;4.50;4.10;;;;;;;;;;4969962;28;24472;-53
2021/07/30 05:41:36;;;;;;;4.43;4.07;;;;;;;;;;4970789;28;24398;-53
2021/07/30 05:44:01;;;;;;;4.32;3.92;;;;;;;;;;4968366;28;24970;-53
2021/07/30 05:46:26;;;;;;;4.10;3.72;;;;;;;;;;4970823;28;24485;-53
2021/07/30 05:48:56;;;;;;;4.15;3.75;;;;;;;;;;4969911;28;24448;-54
2021/07/30 05:51:21;;;;;;;4.55;4.22;;;;;;;;;;4970326;28;24436;-54
2021/07/30 05:53:47;;;;;;;4.47;4.18;;;;;;;;;;4987412;28;24436;-54
2021/07/30 05:56:12;;;;;;;4.60;4.20;;;;;;;;;;4990019;28;24404;-53
2021/07/30 05:58:37;;;;;;;4.87;4.37;;;;;;;;;;4989856;28;24385;-53
2021/07/30 06:01:02;;;;;;;4.57;4.18;;;;;;;;;;4986978;28;24425;-54
2021/07/30 06:03:27;;;;;;;5.30;4.30;;;;;;;;;;4987496;28;24931;-54
2021/07/30 06:05:52;;;;;;;4.38;4.07;;;;;;;;;;4986926;28;24496;-54
2021/07/30 06:08:17;;;;;;;4.60;4.20;;;;;;;;;;4985556;28;24491;-54
2021/07/30 06:10:43;;;;;;;4.50;4.10;;;;;;;;;;4974362;28;24947;-54
2021/07/30 06:13:08;;;;;;;4.50;4.20;;;;;;;;;;4986282;28;24417;-54
2021/07/30 06:15:33;;;;;;;4.80;4.50;;;;;;;;;;4986057;28;24459;-54
2021/07/30 06:18:00;;;;;;;4.53;4.00;;;;;;;;;;4986891;28;24416;-54
2021/07/30 06:20:25;;;;;;;4.55;4.15;;;;;;;;;;4988071;28;24426;-53
2021/07/30 06:22:50;;;;;;;4.47;4.07;;;;;;;;;;4986066;28;24761;-52
2021/07/30 06:25:16;;;;;;;4.70;4.30;;;;;;;;;;4989578;28;24504;-54
2021/07/30 06:27:41;;;;;;;4.82;4.43;;;;;;;;;;4986583;28;24939;-52
2021/07/30 06:30:07;;;;;;;4.43;4.13;;;;;;;;;;4982623;28;24541;-53
2021/07/30 06:32:32;;;;;;;4.75;4.35;;;;;;;;;;4982561;28;24868;-54
2021/07/30 06:34:58;;;;;;;5.43;4.70;;;;;;;;;;4986186;28;24417;-52
2021/07/30 06:37:23;;;;;;;6.25;4.22;;;;;;;;;;4984505;28;24432;-52
2021/07/30 06:39:48;;;;;;;4.80;4.40;;;;;;;;;;4977611;28;24434;-52
2021/07/30 06:42:13;;;;;;;5.50;4.00;;;;;;;;;;4985561;28;24617;-52
2021/07/30 06:44:38;;;;;;;4.20;3.80;;;;;;;;;;4985856;28;24456;-52
2021/07/30 06:47:04;;;;;;;4.60;4.20;;;;;;;;;;4986318;28;24491;-52
2021/07/30 06:49:29;;;;;;;4.20;3.90;;;;;;;;;;4981521;28;24583;-53
2021/07/30 06:51:54;;;;;;;4.70;4.30;;;;;;;;;;4985297;28;24444;-53
2021/07/30 06:54:19;;;;;;;4.40;4.10;;;;;;;;;;4983970;28;24508;-53
2021/07/30 06:56:47;;;;;;;4.35;4.05;;;;;;;;;;4968685;28;25048;-54
2021/07/30 06:59:12;;;;;;;4.37;3.90;;;;;;;;;;4986387;28;25062;-53
2021/07/30 07:01:38;;;;;;;4.45;4.05;;;;;;;;;;4984711;28;24819;-52
2021/07/30 07:04:03;;;;;;;3.75;3.45;;;;;;;;;;4982905;28;25034;-53
2021/07/30 07:06:28;;;;;;;4.00;3.70;;;;;;;;;;4974578;28;24536;-53
2021/07/30 07:08:54;;;;;;;5.22;3.75;;;;;;;;;;4979968;28;25005;-53
2021/07/30 07:11:19;;;;;;;4.20;3.90;;;;;;;;;;4977468;28;24444;-53
2021/07/30 07:13:44;;;;;;;3.60;3.30;;;;;;;;;;4977699;28;24472;-52
2021/07/30 07:16:09;;;;;;;4.13;3.72;;;;;;;;;;4987669;28;24389;-53
2021/07/30 07:18:35;;;;;;;3.93;3.63;;;;;;;;;;4979919;28;24979;-52
2021/07/30 07:21:00;;;;;;;4.00;3.70;;;;;;;;;;4966568;28;24417;-54
2021/07/30 07:23:25;;;;;;;3.63;3.30;;;;;;;;;;4969419;28;24962;-53
2021/07/30 07:25:50;;;;;;;4.50;3.60;;;;;;;;;;4999058;28;25056;-53
2021/07/30 07:28:15;;;;;;;3.90;3.60;;;;;;;;;;4994112;28;24416;-53
2021/07/30 07:30:40;;;;;;;4.00;3.70;;;;;;;;;;4987852;28;24416;-53
2021/07/30 07:33:06;;;;;;;3.60;3.30;;;;;;;;;;4987767;28;24401;-53
2021/07/30 07:35:31;;;;;;;3.10;2.80;;;;;;;;;;4987587;28;24963;-54
2021/07/30 07:38:03;;;;;;;3.60;2.80;;;;;;;;;;4987398;28;24424;-54
2021/07/30 07:40:28;;;;;;;2.92;2.63;;;;;;;;;;4987862;28;24488;-55
2021/07/30 07:42:53;;;;;;;2.60;2.40;;;;;;;;;;4986657;28;24499;-54
2021/07/30 07:45:18;;;;;;;2.27;2.07;;;;;;;;;;4987740;28;24460;-54
2021/07/30 07:47:43;;;;;;;2.53;2.33;;;;;;;;;;4986640;28;24416;-54
2021/07/30 07:50:09;;;;;;;2.72;2.63;;;;;;;;;;4987702;28;24417;-53
2021/07/30 07:52:34;;;;;;;2.77;2.50;;;;;;;;;;4987739;28;24437;-53
2021/07/30 07:54:59;;;;;;;2.70;2.50;;;;;;;;;;4987591;28;24472;-53
2021/07/30 07:57:25;;;;;;;3.90;2.93;;;;;;;;;;4987764;28;24982;-52
2021/07/30 07:59:50;;;;;;;2.60;2.40;;;;;;;;;;4987778;28;24987;-53
2021/07/30 08:02:15;;;;;;;2.90;2.70;;;;;;;;;;4985903;28;24439;-53
2021/07/30 08:04:40;;;;;;;2.35;2.15;;;;;;;;;;4977823;28;24863;-53
2021/07/30 08:07:09;;;;;;;2.47;2.30;;;;;;;;;;4968071;28;24394;-53
2021/07/30 08:09:34;;;;;;;3.00;2.70;;;;;;;;;;4986126;28;25030;-53
2021/07/30 08:11:59;;;;;;;3.57;2.70;;;;;;;;;;4987681;28;24512;-52
2021/07/30 08:14:24;;;;;;;3.53;2.60;;;;;;;;;;4985716;28;24583;-53
2021/07/30 08:16:49;;;;;;;2.60;2.40;;;;;;;;;;4977833;28;24416;-53
2021/07/30 08:19:16;;;;;;;2.40;2.30;;;;;;;;;;4979192;28;24417;-53
2021/07/30 08:21:41;;;;;;;3.40;2.37;;;;;;;;;;4987792;28;24409;-53
2021/07/30 08:24:06;;;;;;;2.78;2.58;;;;;;;;;;4987872;28;24572;-53
2021/07/30 08:26:31;;;;;;;2.57;2.40;;;;;;;;;;4987205;28;24439;-53
2021/07/30 08:28:56;;;;;;;3.28;2.97;;;;;;;;;;4987277;28;25039;-53
2021/07/30 08:31:25;;;;;;;3.20;2.90;;;;;;;;;;5001153;28;25160;-53
2021/07/30 08:33:50;;;;;;;2.95;2.65;;;;;;;;;;5007119;28;24381;-54
2021/07/30 08:36:15;;;;;;;2.90;2.70;;;;;;;;;;4997237;28;24822;-53
2021/07/30 08:38:40;;;;;;;2.60;2.40;;;;;;;;;;4987099;28;24499;-53
2021/07/30 08:41:06;;;;;;;3.17;2.88;;;;;;;;;;4990460;28;24473;-53
2021/07/30 08:43:32;;;;;;;2.43;2.23;;;;;;;;;;4991434;28;24768;-53
2021/07/30 08:45:58;;;;;;;2.42;2.30;;;;;;;;;;4990613;28;25275;-53
2021/07/30 08:48:23;;;;;;;3.00;2.60;;;;;;;;;;4991404;28;24953;-54
2021/07/30 08:50:49;;;;;;;2.97;2.77;;;;;;;;;;4990098;28;24461;-53
2021/07/30 08:53:20;;;;;;;2.60;2.40;;;;;;;;;;4990573;28;25038;-53
2021/07/30 08:55:45;;;;;;;2.80;2.60;;;;;;;;;;4990442;28;24492;-53
2021/07/30 08:58:12;;;;;;;2.97;2.67;;;;;;;;;;4990369;28;24517;-53
2021/07/30 09:00:37;;;;;;;2.80;2.60;;;;;;;;;;4991229;28;24409;-53
2021/07/30 09:03:03;;;;;;;3.00;2.80;;;;;;;;;;4990613;28;24471;-54
2021/07/30 09:05:32;;;;;;;2.80;2.60;;;;;;;;;;4990273;28;24405;-54
2021/07/30 09:07:58;;;;;;;2.70;2.50;;;;;;;;;;4990538;28;24412;-54
2021/07/30 09:10:30;;;;;;;2.30;2.20;;;;;;;;;;4979889;28;24405;-54
2021/07/30 09:13:14;;;;;;;3.23;2.70;;;;;;;;;;4989774;28;24385;-53
2021/07/30 09:15:40;;;;;;;3.72;3.00;;;;;;;;;;4989963;28;24951;-54
2021/07/30 09:18:05;;;;;;;3.13;2.83;;;;;;;;;;4990551;28;24440;-53
2021/07/30 09:20:30;;;;;;;2.50;2.30;;;;;;;;;;4990670;28;24776;-53
2021/07/30 09:22:55;;;;;;;2.70;2.50;;;;;;;;;;4990735;28;24408;-54
2021/07/30 09:25:33;;;;;;;3.10;2.80;;;;;;;;;;4989755;28;24436;-54
2021/07/30 09:28:05;;;;;;;3.08;2.88;;;;;;;;;;4990824;28;24755;-53
2021/07/30 09:30:31;;;;;;;2.70;2.50;;;;;;;;;;4989418;28;24472;-54
2021/07/30 09:32:56;;;;;;;2.70;2.50;;;;;;;;;;4990910;28;24400;-53
2021/07/30 09:35:22;;;;;;;2.90;2.70;;;;;;;;;;4990406;28;24489;-53
2021/07/30 09:38:07;;;;;;;3.20;2.50;;;;;;;;;;4990894;28;24811;-53
2021/07/30 09:40:32;;;;;;;3.20;3.00;;;;;;;;;;4989144;28;25074;-53
2021/07/30 09:43:17;;;;;;;2.90;2.70;;;;;;;;;;4989907;28;25078;-53
2021/07/30 09:45:42;;;;;;;2.80;2.60;;;;;;;;;;4989665;28;24879;-53
2021/07/30 09:48:07;;;;;;;2.83;2.63;;;;;;;;;;4989371;28;24493;-54
2021/07/30 09:50:32;;;;;;;3.20;2.90;;;;;;;;;;4989238;28;24449;-53
2021/07/30 09:53:01;;;;;;;3.13;2.83;;;;;;;;;;4989129;28;24479;-53
2021/07/30 09:55:26;;;;;;;2.90;2.70;;;;;;;;;;4990163;28;25005;-53
2021/07/30 09:57:52;;;;;;;3.57;2.90;;;;;;;;;;4989129;28;24401;-53
2021/07/30 10:00:17;;;;;;;2.70;2.50;;;;;;;;;;4988975;28;24479;-53
2021/07/30 10:02:43;;;;;;;2.80;2.60;;;;;;;;;;4990277;28;24397;-53
2021/07/30 10:05:12;;;;;;;2.67;2.47;;;;;;;;;;4990038;28;24743;-53
2021/07/30 10:07:38;;;;;;;3.10;2.90;;;;;;;;;;4989979;28;24943;-53
2021/07/30 10:10:10;;;;;;;3.20;3.00;;;;;;;;;;4988926;28;24432;-53
2021/07/30 10:12:37;;;;;;;3.17;2.88;;;;;;;;;;4990043;28;24575;-53
2021/07/30 10:15:04;;;;;;;2.83;2.63;;;;;;;;;;4971375;28;24745;-54
2021/07/30 10:17:33;;;;;;;2.90;2.70;;;;;;;;;;4989002;28;24440;-54
2021/07/30 10:19:59;;;;;;;2.80;2.60;;;;;;;;;;4989213;28;24492;-54
2021/07/30 10:22:29;;;;;;;2.60;2.50;;;;;;;;;;4989346;28;25200;-53
2021/07/30 10:24:55;;;;;;;3.45;3.15;;;;;;;;;;4987954;28;24808;-54
2021/07/30 10:27:23;;;;;;;3.10;2.90;;;;;;;;;;4988744;28;24994;-53
2021/07/30 10:30:05;;;;;;;3.20;2.90;;;;;;;;;;4987247;28;24998;-54
2021/07/30 10:32:43;;;;;;;3.30;3.00;;;;;;;;;;4982194;28;24465;-53
2021/07/30 10:35:09;;;;;;;3.15;2.95;;;;;;;;;;4984576;28;24500;-54
2021/07/30 10:37:37;;;;;;;3.00;2.80;;;;;;;;;;4978721;28;25052;-54
2021/07/30 10:40:12;;;;;;;2.90;2.70;;;;;;;;;;4978305;28;24417;-54
2021/07/30 10:42:57;;;;;;;3.00;2.80;;;;;;;;;;4975337;28;24401;-54
2021/07/30 10:45:22;;;;;;;2.80;2.60;;;;;;;;;;4973599;28;25476;-54
2021/07/30 10:48:07;;;;;;;2.90;2.70;;;;;;;;;;4977017;28;24432;-55
2021/07/30 10:50:45;;;;;;;2.83;2.63;;;;;;;;;;4979525;28;24674;-54
2021/07/30 10:53:29;;;;;;;3.10;2.80;;;;;;;;;;4979129;28;24444;-54
2021/07/30 10:55:54;;;;;;;2.92;2.72;;;;;;;;;;4979231;28;24542;-55
2021/07/30 10:58:19;;;;;;;2.80;2.60;;;;;;;;;;4974383;28;25208;-54
2021/07/30 11:00:54;;;;;;;3.00;2.70;;;;;;;;;;4979448;28;24449;-54
2021/07/30 11:03:19;;;;;;;3.75;3.10;;;;;;;;;;4971291;28;24521;-54
2021/07/30 11:06:07;;;;;;;4.35;3.10;;;;;;;;;;4982445;28;25233;-54
2021/07/30 11:08:52;;;;;;;3.40;2.70;;;;;;;;;;4968828;28;25049;-54
2021/07/30 11:11:36;;;;;;;2.70;2.60;;;;;;;;;;4974152;28;24433;-54
2021/07/30 11:14:01;;;;;;;3.20;3.00;;;;;;;;;;4984847;28;24511;-54
2021/07/30 11:16:26;;;;;;;3.10;2.80;;;;;;;;;;4981629;28;25040;-54
2021/07/30 11:18:51;;;;;;;3.00;2.80;;;;;;;;;;4983065;28;24413;-54
2021/07/30 11:21:16;;;;;;;2.97;2.70;;;;;;;;;;4983631;28;24421;-54
2021/07/30 11:23:44;;;;;;;3.13;2.83;;;;;;;;;;4984095;28;25009;-54
2021/07/30 11:26:10;;;;;;;3.10;2.80;;;;;;;;;;4983680;28;24413;-54
2021/07/30 11:28:35;;;;;;;2.80;2.60;;;;;;;;;;4979333;28;24480;-54
2021/07/30 11:31:01;;;;;;;4.50;3.30;;;;;;;;;;4965623;28;24580;-54
2021/07/30 11:33:26;;;;;;;3.20;3.00;;;;;;;;;;4968307;28;24413;-54
2021/07/30 11:35:51;;;;;;;2.90;2.70;;;;;;;;;;4966186;28;24412;-52
2021/07/30 11:38:16;;;;;;;3.38;3.08;;;;;;;;;;4970889;28;25243;-53
2021/07/30 11:40:42;;;;;;;3.90;3.50;;;;;;;;;;4965990;28;24401;-52
2021/07/30 11:43:07;;;;;;;3.40;3.10;;;;;;;;;;4976647;28;24429;-53
2021/07/30 11:45:33;;;;;;;3.20;3.00;;;;;;;;;;4967654;28;24413;-53
2021/07/30 11:47:58;;;;;;;3.50;3.20;;;;;;;;;;4980472;28;24817;-53
2021/07/30 11:50:25;;;;;;;2.83;2.63;;;;;;;;;;4976851;28;24468;-53
2021/07/30 11:52:51;;;;;;;3.00;2.80;;;;;;;;;;4965621;28;24472;-53
2021/07/30 11:55:17;;;;;;;3.28;2.97;;;;;;;;;;4971249;28;24497;-53
2021/07/30 11:57:42;;;;;;;3.42;2.83;;;;;;;;;;4970944;28;24955;-52
2021/07/30 12:00:08;;;;;;;3.05;2.85;;;;;;;;;;4984714;28;24431;-53
2021/07/30 12:02:33;;;;;;;3.40;3.20;;;;;;;;;;4982324;28;24521;-53
2021/07/30 12:04:58;;;;;;;3.10;2.90;;;;;;;;;;4979961;28;24928;-54
2021/07/30 12:07:30;;;;;;;4.23;3.40;;;;;;;;;;4980196;28;25046;-53
2021/07/30 12:09:57;;;;;;;3.38;3.17;;;;;;;;;;4984288;28;24512;-53
2021/07/30 12:12:23;;;;;;;3.35;3.05;;;;;;;;;;4980896;28;24517;-53
2021/07/30 12:14:49;;;;;;;2.97;2.78;;;;;;;;;;4970055;28;24458;-54
2021/07/30 12:17:15;;;;;;;3.40;3.20;;;;;;;;;;4973663;28;24515;-54
2021/07/30 12:19:41;;;;;;;3.40;3.20;;;;;;;;;;4977386;28;24528;-54
2021/07/30 12:22:06;;;;;;;3.30;3.10;;;;;;;;;;4973775;28;24425;-54
2021/07/30 12:24:32;;;;;;;3.05;2.75;;;;;;;;;;4977523;28;24445;-54
2021/07/30 12:27:14;;;;;;;3.00;2.80;;;;;;;;;;4973016;28;24461;-54
2021/07/30 12:29:43;;;;;;;3.42;3.22;;;;;;;;;;4976526;28;25049;-54
2021/07/30 12:32:09;;;;;;;3.60;3.40;;;;;;;;;;4974003;28;24765;-54
2021/07/30 12:34:34;;;;;;;3.30;3.10;;;;;;;;;;4978307;28;24845;-54
2021/07/30 12:37:06;;;;;;;3.00;2.80;;;;;;;;;;4981100;28;24440;-54
2021/07/30 12:39:48;;;;;;;3.22;3.03;;;;;;;;;;4982870;28;25233;-54
2021/07/30 12:42:19;;;;;;;3.28;3.03;;;;;;;;;;4964579;28;24401;-55
2021/07/30 12:45:01;;;;;;;3.03;2.83;;;;;;;;;;4972499;28;24954;-54
2021/07/30 12:47:26;;;;;;;3.42;3.22;;;;;;;;;;4983163;28;24459;-55
2021/07/30 12:49:52;;;;;;;3.40;3.10;;;;;;;;;;4983240;28;24977;-54
2021/07/30 12:52:17;;;;;;;3.53;3.22;;;;;;;;;;4982778;28;24580;-54
2021/07/30 12:54:43;;;;;;;3.50;3.30;;;;;;;;;;4958432;28;24428;-54
2021/07/30 12:57:08;;;;;;;3.70;3.40;;;;;;;;;;4977648;28;24479;-53
2021/07/30 12:59:46;;;;;;;3.80;3.50;;;;;;;;;;4978527;28;24445;-54
2021/07/30 13:02:11;;;;;;;3.35;3.05;;;;;;;;;;4976090;28;24432;-54
2021/07/30 13:04:36;;;;;;;3.22;3.03;;;;;;;;;;4982304;28;24409;-54
2021/07/30 13:07:02;;;;;;;3.20;2.90;;;;;;;;;;4983367;28;24495;-54
2021/07/30 13:09:27;;;;;;;3.43;3.13;;;;;;;;;;4984372;28;24507;-55
2021/07/30 13:11:52;;;;;;;3.70;3.40;;;;;;;;;;4996977;28;24499;-55
2021/07/30 13:14:17;;;;;;;3.60;3.30;;;;;;;;;;4986100;28;24417;-52
2021/07/30 13:16:42;;;;;;;3.35;3.15;;;;;;;;;;4984868;28;24462;-53
2021/07/30 13:19:08;;;;;;;3.30;3.10;;;;;;;;;;4991048;28;24474;-53
2021/07/30 13:21:33;;;;;;;3.40;3.10;;;;;;;;;;4986876;28;24421;-53
2021/07/30 13:23:58;;;;;;;3.53;3.22;;;;;;;;;;4983778;28;24429;-54
2021/07/30 13:26:23;;;;;;;2.85;2.70;;;;;;;;;;4982547;28;24828;-54
2021/07/30 13:28:48;;;;;;;3.28;3.00;;;;;;;;;;4987837;28;24586;-54
2021/07/30 13:31:13;;;;;;;3.70;3.30;;;;;;;;;;4990108;28;24421;-54
2021/07/30 13:33:38;;;;;;;3.30;3.00;;;;;;;;;;4987307;28;24552;-54
2021/07/30 13:36:04;;;;;;;3.70;3.40;;;;;;;;;;4989825;28;25009;-53
2021/07/30 13:38:29;;;;;;;3.30;3.10;;;;;;;;;;4981224;28;24448;-53
2021/07/30 13:40:55;;;;;;;3.30;3.10;;;;;;;;;;4980676;28;24779;-54
2021/07/30 13:43:23;;;;;;;3.70;3.40;;;;;;;;;;4989753;28;24420;-54
2021/07/30 13:45:51;;;;;;;3.75;3.45;;;;;;;;;;4986262;28;24943;-54
2021/07/30 13:48:16;;;;;;;3.35;3.05;;;;;;;;;;4987407;28;24456;-54
2021/07/30 13:50:41;;;;;;;4.10;3.50;;;;;;;;;;4984386;28;24468;-54
2021/07/30 13:53:07;;;;;;;3.60;3.30;;;;;;;;;;4992605;28;24437;-54
2021/07/30 13:55:32;;;;;;;3.50;3.30;;;;;;;;;;4989642;28;24421;-54
2021/07/30 13:57:57;;;;;;;3.40;3.20;;;;;;;;;;4984056;28;24409;-54
2021/07/30 14:00:22;;;;;;;3.40;3.10;;;;;;;;;;4973275;28;24501;-54
2021/07/30 14:02:47;;;;;;;3.53;3.23;;;;;;;;;;4987717;28;24846;-54
2021/07/30 14:05:13;;;;;;;3.70;3.40;;;;;;;;;;4987618;28;24417;-54
2021/07/30 14:07:39;;;;;;;3.20;3.00;;;;;;;;;;4989066;28;24438;-53
2021/07/30 14:10:05;;;;;;;3.70;3.40;;;;;;;;;;4989639;28;24424;-53
2021/07/30 14:12:30;;;;;;;3.47;3.17;;;;;;;;;;4988349;28;24505;-54
2021/07/30 14:14:55;;;;;;;3.60;3.40;;;;;;;;;;4989753;28;24425;-53
2021/07/30 14:17:20;;;;;;;3.40;3.20;;;;;;;;;;4988803;28;24760;-53
2021/07/30 14:19:45;;;;;;;3.60;3.30;;;;;;;;;;4988363;28;24499;-53
2021/07/30 14:22:11;;;;;;;4.10;3.70;;;;;;;;;;4989339;28;24421;-54
2021/07/30 14:24:36;;;;;;;3.53;3.33;;;;;;;;;;4988725;28;24775;-53
2021/07/30 14:27:01;;;;;;;3.80;3.50;;;;;;;;;;4988770;28;24444;-54
2021/07/30 14:29:27;;;;;;;3.70;3.40;;;;;;;;;;4971413;28;24839;-54
2021/07/30 14:31:52;;;;;;;3.80;3.50;;;;;;;;;;4988545;28;24480;-55
2021/07/30 14:34:17;;;;;;;3.85;3.65;;;;;;;;;;4988868;28;24520;-52
2021/07/30 14:36:42;;;;;;;3.80;3.50;;;;;;;;;;4988189;28;24815;-52
2021/07/30 14:39:08;;;;;;;3.90;3.40;;;;;;;;;;4988659;28;24413;-53
2021/07/30 14:41:33;;;;;;;3.77;3.47;;;;;;;;;;4988063;28;24429;-53